createdAt,value
2023-01-15T00:02:32.297Z,76.12
2023-01-15T00:05:24.321Z,76.49
2023-01-15T00:09:06.539Z,76.65
2023-01-15T00:11:46.729Z,76.84
2023-01-15T00:14:35.028Z,77.11
2023-01-15T00:17:38.660Z,77.20
2023-01-15T01:32:47.317Z,78.78
2023-01-15T01:36:36.691Z,78.81
2023-01-15T01:40:25.680Z,78.90
2023-01-15T01:44:18.751Z,79.03
2023-01-15T01:48:08.910Z,79.31
2023-01-15T01:55:28.367Z,80.05
2023-01-15T02:21:48.319Z,78.09
2023-01-15T02:25:37.100Z,77.42
2023-01-15T02:28:55.031Z,77.06
2023-01-15T02:32:09.331Z,77.47
2023-01-15T02:35:49.579Z,77.89
2023-01-15T02:39:30.096Z,77.56
2023-01-15T02:42:51.822Z,76.33
2023-01-15T02:45:55.316Z,76.59
2023-01-15T02:49:14.747Z,76.33
2023-01-15T02:52:26.876Z,76.41
2023-01-15T02:55:46.740Z,75.54
2023-01-15T02:59:23.669Z,75.20
2023-01-15T03:03:21.988Z,75.11
2023-01-15T03:07:04.781Z,75.32
2023-01-15T03:09:56.479Z,75.23
2023-01-15T03:13:42.471Z,76.13
2023-01-15T03:17:07.624Z,75.66
2023-01-15T03:20:29.768Z,76.01
2023-01-15T03:27:40.491Z,76.16
2023-01-15T03:31:11.174Z,76.63
2023-01-15T03:34:19.066Z,77.06
2023-01-15T03:37:51.019Z,77.77
2023-01-15T03:41:23.188Z,77.91
2023-01-15T03:45:06.387Z,78.50
2023-01-15T03:48:13.927Z,78.48
2023-01-15T03:51:54.723Z,78.67
2023-01-15T04:36:43.242Z,77.26
2023-01-15T04:40:24.410Z,76.86
2023-01-15T04:43:55.334Z,76.84
2023-01-15T04:47:44.421Z,76.84
2023-01-15T04:51:13.253Z,76.48
2023-01-15T04:54:40.559Z,76.79
2023-01-15T04:58:12.319Z,77.02
2023-01-15T05:02:02.042Z,76.52
2023-01-15T05:05:21.636Z,76.36
2023-01-15T05:09:10.550Z,76.37
2023-01-15T05:54:52.085Z,77.04
2023-01-15T05:58:33.711Z,76.77
2023-01-15T06:02:04.770Z,76.37
2023-01-15T06:05:43.062Z,76.49
2023-01-15T06:09:32.002Z,76.45
2023-01-15T06:13:10.072Z,76.46
2023-01-15T06:16:42.560Z,77.15
2023-01-15T06:20:31.827Z,77.07
2023-01-15T06:24:40.293Z,77.39
2023-01-15T06:28:09.052Z,77.02
2023-01-15T06:31:34.916Z,77.38
2023-01-15T06:35:24.027Z,78.10
2023-01-15T06:38:43.161Z,77.96
2023-01-15T06:42:30.916Z,76.56
2023-01-15T06:45:39.865Z,76.70
2023-01-15T06:48:31.731Z,77.19
2023-01-15T06:51:31.387Z,76.87
2023-01-15T06:54:55.535Z,76.16
2023-01-15T06:58:44.579Z,76.04
2023-01-15T07:02:34.719Z,76.56
2023-01-15T07:06:26.384Z,76.22
2023-01-15T07:17:55.436Z,76.38
2023-01-15T07:21:43.595Z,75.81
2023-01-15T07:24:56.463Z,75.03
2023-01-15T07:28:35.947Z,75.22
2023-01-15T07:32:17.796Z,73.91
2023-01-15T07:35:39.838Z,74.08
2023-01-15T07:39:28.910Z,73.80
2023-01-15T07:42:59.072Z,73.32
2023-01-15T07:46:09.299Z,72.98
2023-01-15T07:49:39.569Z,72.70
2023-01-15T07:52:45.793Z,72.99
2023-01-15T07:55:57.974Z,71.90
2023-01-15T07:59:29.623Z,72.48
2023-01-15T08:03:18.956Z,72.41
2023-01-15T08:07:08.091Z,71.99
2023-01-15T08:10:12.116Z,71.82
2023-01-15T08:13:44.542Z,71.71
2023-01-15T08:17:33.890Z,71.52
2023-01-15T08:21:24.668Z,71.10
2023-01-15T08:25:14.942Z,70.70
2023-01-15T08:28:25.201Z,70.88
2023-01-15T08:31:44.419Z,69.97
2023-01-15T09:11:31.405Z,66.40
2023-01-15T09:15:02.732Z,66.35
2023-01-15T09:18:20.944Z,66.32
2023-01-15T09:35:56.343Z,64.75
2023-01-15T09:39:08.787Z,64.95
2023-01-15T09:42:43.960Z,63.56
2023-01-15T09:50:22.436Z,63.70
2023-01-15T10:24:00.465Z,62.74
2023-01-15T10:27:36.912Z,63.94
2023-01-15T10:31:25.977Z,64.45
2023-01-15T10:35:24.128Z,64.63
2023-01-15T10:39:06.748Z,65.56
2023-01-15T10:43:01.135Z,66.30
2023-01-15T10:46:50.091Z,67.04
2023-01-15T10:50:11.808Z,68.15
2023-01-15T10:52:46.879Z,68.72
2023-01-15T10:56:03.798Z,69.27
2023-01-15T11:16:06.027Z,72.79
2023-01-15T11:19:56.700Z,73.54
2023-01-15T11:23:47.315Z,74.92
2023-01-15T11:27:35.046Z,77.07
2023-01-15T11:31:26.451Z,79.23
2023-01-15T11:35:00.823Z,79.77
2023-01-15T11:38:56.219Z,81.29
2023-01-15T11:42:43.075Z,81.33
2023-01-15T11:46:46.858Z,80.96
2023-01-15T11:50:32.492Z,80.85
2023-01-15T12:03:03.036Z,79.42
2023-01-15T12:06:53.828Z,79.74
2023-01-15T12:10:47.434Z,79.86
2023-01-15T12:14:57.100Z,79.21
2023-01-15T12:27:22.600Z,77.08
2023-01-15T12:31:30.063Z,77.31
2023-01-15T12:43:27.675Z,79.54
2023-01-15T12:47:20.539Z,80.25
2023-01-15T12:51:07.955Z,80.95
2023-01-15T12:54:56.989Z,81.76
2023-01-15T13:10:56.119Z,84.15
2023-01-15T13:14:46.243Z,84.83
2023-01-15T13:18:40.101Z,85.42
2023-01-15T13:30:40.620Z,87.54
2023-01-15T13:34:32.340Z,87.84
2023-01-15T13:38:28.027Z,88.97
2023-01-15T13:42:19.228Z,88.84
2023-01-15T13:46:15.504Z,89.51
2023-01-15T13:54:09.644Z,89.75
2023-01-15T13:57:55.823Z,89.87
2023-01-15T14:00:56.692Z,90.53
2023-01-15T14:04:19.146Z,90.54
2023-01-15T14:06:52.484Z,91.32
2023-01-15T14:09:20.949Z,91.68
2023-01-15T14:12:55.870Z,91.87
2023-01-15T14:39:30.668Z,94.19
2023-01-15T14:43:06.149Z,94.46
2023-01-15T14:46:45.332Z,95.26
2023-01-15T14:50:24.905Z,95.96
2023-01-15T14:54:14.300Z,96.45
2023-01-15T14:57:41.829Z,96.81
2023-01-15T15:12:57.903Z,97.58
2023-01-15T15:16:53.197Z,97.64
2023-01-15T15:24:43.830Z,98.65
2023-01-15T15:28:05.233Z,98.29
2023-01-15T15:31:48.168Z,99.09
2023-01-15T15:35:08.175Z,99.22
2023-01-15T15:38:57.610Z,100.00
2023-01-15T15:42:45.938Z,100.00
2023-01-15T15:46:33.510Z,100.00
